createdAt,value
2018-04-06T00:02:03.345Z,7.50
2018-04-06T00:04:30.872Z,7.50
2018-04-06T00:06:58.358Z,7.40
2018-04-06T00:09:25.836Z,7.40
2018-04-06T00:11:53.330Z,7.40
2018-04-06T00:14:20.823Z,7.40
2018-04-06T00:16:48.307Z,7.40
2018-04-06T00:19:16.573Z,7.30
2018-04-06T00:21:44.072Z,7.20
2018-04-06T00:24:11.556Z,7.30
2018-04-06T00:26:39.070Z,7.20
2018-04-06T00:29:07.323Z,7.10
2018-04-06T00:31:34.821Z,7.00
2018-04-06T00:34:02.363Z,7.10
2018-04-06T00:36:30.610Z,7.00
2018-04-06T00:38:58.097Z,6.90
2018-04-06T00:41:25.608Z,6.90
2018-04-06T00:43:53.205Z,6.90
2018-04-06T00:46:20.688Z,6.90
2018-04-06T00:48:48.190Z,6.70
2018-04-06T00:51:15.775Z,6.70
2018-04-06T00:53:47.807Z,6.70
2018-04-06T00:56:15.303Z,6.60
2018-04-06T00:58:42.789Z,6.60
2018-04-06T01:01:10.298Z,6.70
2018-04-06T01:03:38.547Z,6.50
2018-04-06T01:06:06.030Z,6.50
2018-04-06T01:08:34.294Z,6.40
2018-04-06T01:11:02.557Z,6.20
2018-04-06T01:13:30.083Z,6.10
2018-04-06T01:15:57.577Z,6.10
2018-04-06T01:18:25.054Z,6.30
2018-04-06T01:20:53.327Z,6.30
2018-04-06T01:23:21.585Z,5.90
2018-04-06T01:25:49.879Z,6.00
2018-04-06T01:28:18.255Z,6.00
2018-04-06T01:30:46.509Z,5.90
2018-04-06T01:33:14.021Z,5.90
2018-04-06T01:35:41.531Z,6.00
2018-04-06T01:38:09.789Z,6.20
2018-04-06T01:40:37.316Z,6.10
2018-04-06T01:43:04.800Z,6.20
2018-04-06T01:45:32.282Z,6.10
2018-04-06T01:48:00.555Z,6.00
2018-04-06T01:50:28.807Z,5.90
2018-04-06T01:52:56.344Z,5.90
2018-04-06T01:55:23.851Z,6.00
2018-04-06T01:57:52.112Z,6.00
2018-04-06T02:00:20.409Z,5.90
2018-04-06T02:02:47.961Z,5.80
2018-04-06T02:05:15.449Z,5.90
2018-04-06T02:07:42.949Z,5.90
2018-04-06T02:10:10.438Z,5.80
2018-04-06T02:12:37.958Z,5.80
2018-04-06T02:15:05.548Z,5.80
2018-04-06T02:17:33.110Z,5.70
2018-04-06T02:20:00.614Z,5.70
2018-04-06T02:22:28.231Z,5.60
2018-04-06T02:24:55.720Z,5.60
2018-04-06T02:27:23.201Z,5.50
2018-04-06T02:29:50.705Z,5.50
2018-04-06T02:32:18.194Z,5.50
2018-04-06T02:34:45.688Z,5.40
2018-04-06T02:37:13.954Z,5.40
2018-04-06T02:39:42.250Z,5.30
2018-04-06T02:42:09.770Z,5.30
2018-04-06T02:44:37.259Z,5.30
2018-04-06T02:47:04.770Z,5.30
2018-04-06T02:49:32.271Z,5.30
2018-04-06T02:52:00.533Z,5.20
2018-04-06T02:54:28.788Z,5.20
2018-04-06T02:56:56.290Z,5.10
2018-04-06T02:59:23.801Z,5.10
2018-04-06T03:01:51.307Z,5.10
2018-04-06T03:04:18.805Z,5.00
2018-04-06T03:06:46.305Z,5.00
2018-04-06T03:09:13.857Z,4.90
2018-04-06T03:11:41.317Z,4.90
2018-04-06T03:14:09.581Z,4.70
2018-04-06T03:16:37.835Z,4.70
2018-04-06T03:19:05.430Z,4.70
2018-04-06T03:21:32.912Z,4.80
2018-04-06T03:24:00.437Z,4.70
2018-04-06T03:26:28.818Z,4.60
2018-04-06T03:28:56.364Z,4.60
2018-04-06T03:31:24.640Z,4.50
2018-04-06T03:33:52.901Z,4.50
2018-04-06T03:36:20.389Z,4.40
2018-04-06T03:38:47.916Z,4.50
2018-04-06T03:41:15.370Z,4.50
2018-04-06T03:43:42.867Z,4.50
2018-04-06T03:46:10.407Z,4.40
2018-04-06T03:48:37.974Z,4.40
2018-04-06T03:51:05.479Z,4.30
2018-04-06T03:53:32.961Z,4.30
2018-04-06T03:56:01.250Z,4.20
2018-04-06T03:58:28.754Z,4.20
2018-04-06T04:00:56.245Z,4.10
2018-04-06T04:03:24.545Z,4.20
2018-04-06T04:05:52.052Z,4.10
2018-04-06T04:08:19.558Z,4.10
2018-04-06T04:10:47.048Z,4.10
2018-04-06T04:13:14.548Z,4.10
2018-04-06T04:15:42.853Z,4.00
2018-04-06T04:18:10.414Z,4.00
2018-04-06T04:20:37.908Z,4.10
2018-04-06T04:23:05.397Z,4.00
2018-04-06T04:25:33.688Z,4.00
2018-04-06T04:28:01.204Z,3.90
2018-04-06T04:30:29.506Z,3.90
2018-04-06T04:32:57.750Z,3.90
2018-04-06T04:35:25.245Z,3.80
2018-04-06T04:37:53.501Z,3.80
2018-04-06T04:40:21.010Z,3.80
2018-04-06T04:42:48.537Z,3.80
2018-04-06T04:45:16.115Z,3.80
2018-04-06T04:47:43.605Z,3.80
2018-04-06T04:50:11.082Z,3.80
2018-04-06T04:52:38.566Z,3.80
2018-04-06T04:55:06.042Z,3.80
2018-04-06T04:57:33.554Z,3.80
2018-04-06T05:00:01.048Z,3.80
2018-04-06T05:02:28.593Z,3.80
2018-04-06T05:04:56.135Z,3.90
2018-04-06T05:07:24.373Z,4.00
2018-04-06T05:09:51.873Z,4.00
2018-04-06T05:12:20.133Z,4.20
2018-04-06T05:14:48.433Z,4.40
2018-04-06T05:17:15.911Z,4.30
2018-04-06T05:19:43.414Z,4.40
2018-04-06T05:22:10.911Z,4.20
2018-04-06T05:24:38.452Z,4.40
2018-04-06T05:27:06.686Z,4.80
2018-04-06T05:29:34.191Z,4.70
2018-04-06T05:32:01.697Z,4.70
2018-04-06T05:34:29.190Z,4.90
2018-04-06T05:36:57.448Z,5.10
2018-04-06T05:39:24.953Z,5.00
2018-04-06T05:41:52.463Z,5.00
2018-04-06T05:44:20.724Z,5.60
2018-04-06T05:46:48.213Z,5.50
2018-04-06T05:49:16.467Z,6.70
2018-04-06T05:51:44.760Z,6.90
2018-04-06T05:54:13.007Z,7.10
2018-04-06T05:56:40.495Z,7.10
2018-04-06T05:59:08.763Z,7.30
2018-04-06T06:01:37.038Z,7.50
2018-04-06T06:04:05.305Z,7.70
2018-04-06T06:06:33.591Z,7.80
2018-04-06T06:09:01.856Z,7.50
2018-04-06T06:11:30.119Z,8.40
2018-04-06T06:13:57.617Z,8.30
2018-04-06T06:16:25.101Z,8.10
2018-04-06T06:18:52.595Z,8.10
2018-04-06T06:21:20.855Z,8.20
2018-04-06T06:23:48.466Z,8.20
2018-04-06T06:26:15.947Z,8.60
2018-04-06T06:28:43.449Z,8.60
2018-04-06T06:31:11.716Z,10.00
2018-04-06T06:33:40.062Z,10.20
2018-04-06T06:36:07.561Z,10.20
2018-04-06T06:38:35.845Z,9.20
2018-04-06T06:41:03.349Z,9.10
2018-04-06T06:43:30.837Z,9.10
2018-04-06T06:45:59.109Z,11.90
2018-04-06T06:48:27.376Z,11.50
2018-04-06T06:50:54.909Z,11.40
2018-04-06T06:53:22.396Z,10.90
2018-04-06T06:55:50.688Z,10.60
2018-04-06T06:58:18.243Z,10.60
2018-04-06T07:00:46.624Z,11.30
2018-04-06T07:03:14.185Z,11.20
2018-04-06T07:05:41.683Z,11.60
2018-04-06T07:08:09.201Z,12.00
2018-04-06T07:10:36.712Z,12.00
2018-04-06T07:13:04.212Z,12.70
2018-04-06T07:15:31.695Z,12.60
2018-04-06T07:17:59.207Z,12.40
2018-04-06T07:20:27.461Z,12.70
2018-04-06T07:22:54.958Z,12.60
2018-04-06T07:25:22.456Z,12.50
2018-04-06T07:27:49.969Z,13.00
2018-04-06T07:30:17.506Z,12.50
2018-04-06T07:32:49.518Z,13.20
2018-04-06T07:35:17.049Z,13.10
2018-04-06T07:37:44.528Z,13.30
2018-04-06T07:40:12.065Z,13.60
2018-04-06T07:42:39.601Z,12.40
2018-04-06T07:45:07.876Z,13.80
2018-04-06T07:47:36.128Z,13.50
2018-04-06T07:50:03.715Z,13.50
2018-04-06T07:52:31.993Z,13.40
2018-04-06T07:54:59.475Z,13.30
2018-04-06T07:57:26.985Z,12.30
2018-04-06T07:59:54.504Z,12.20
2018-04-06T08:02:21.984Z,12.70
2018-04-06T08:04:49.468Z,13.50
2018-04-06T08:07:17.727Z,13.00
2018-04-06T08:09:45.225Z,12.90
2018-04-06T08:12:12.718Z,13.20
2018-04-06T08:14:40.308Z,11.90
2018-04-06T08:17:08.555Z,11.10
2018-04-06T08:19:36.175Z,11.00
2018-04-06T08:22:03.671Z,11.50
2018-04-06T08:24:31.173Z,11.80
2018-04-06T08:26:58.701Z,11.60
2018-04-06T08:29:26.201Z,11.50
2018-04-06T08:31:53.723Z,12.00
2018-04-06T08:34:21.984Z,12.10
2018-04-06T08:36:49.569Z,12.00
2018-04-06T08:39:17.055Z,11.90
2018-04-06T08:41:44.566Z,11.90
2018-04-06T08:44:12.856Z,11.90
2018-04-06T08:46:41.117Z,11.70
2018-04-06T08:49:09.396Z,11.90
2018-04-06T08:51:37.651Z,11.30
2018-04-06T08:54:05.166Z,11.20
2018-04-06T08:56:32.652Z,12.10
2018-04-06T08:59:00.154Z,13.20
2018-04-06T09:01:27.669Z,13.50
2018-04-06T09:03:55.273Z,13.00
2018-04-06T09:06:22.825Z,12.70
2018-04-06T09:08:50.317Z,12.60
2018-04-06T09:11:17.832Z,13.60
2018-04-06T09:13:46.104Z,12.70
2018-04-06T09:16:14.364Z,13.00
2018-04-06T09:18:41.838Z,12.90
2018-04-06T09:21:10.128Z,12.80
2018-04-06T09:23:37.643Z,12.80
2018-04-06T09:26:05.153Z,12.70
2018-04-06T09:28:32.652Z,12.80
2018-04-06T09:31:00.156Z,12.40
2018-04-06T09:33:27.660Z,12.80
2018-04-06T09:35:55.157Z,13.30
2018-04-06T09:38:23.673Z,13.10
2018-04-06T09:40:51.172Z,13.00
2018-04-06T09:43:18.661Z,13.80
2018-04-06T09:45:46.171Z,13.80
2018-04-06T09:48:13.752Z,14.20
2018-04-06T09:50:42.039Z,13.80
2018-04-06T09:53:10.298Z,13.30
2018-04-06T09:55:38.599Z,13.30
2018-04-06T09:58:06.100Z,13.20
2018-04-06T10:00:33.588Z,14.20
2018-04-06T10:03:02.762Z,14.40
2018-04-06T10:05:30.257Z,14.30
2018-04-06T10:07:57.764Z,15.00
2018-04-06T10:10:25.269Z,14.40
2018-04-06T10:12:52.782Z,14.10
2018-04-06T10:15:20.272Z,13.90
2018-04-06T10:17:48.558Z,14.40
2018-04-06T10:20:16.060Z,14.40
2018-04-06T10:22:43.550Z,14.70
2018-04-06T10:25:11.949Z,13.80
2018-04-06T10:27:39.445Z,13.70
2018-04-06T10:30:06.935Z,14.10
2018-04-06T10:32:34.517Z,14.10
2018-04-06T10:35:02.021Z,13.80
2018-04-06T10:37:29.509Z,13.80
2018-04-06T10:39:57.016Z,13.70
2018-04-06T10:42:24.527Z,14.60
2018-04-06T10:44:52.788Z,14.20
2018-04-06T10:47:20.271Z,14.10
2018-04-06T10:49:48.537Z,14.10
2018-04-06T10:52:16.793Z,13.90
2018-04-06T10:54:44.279Z,13.80
2018-04-06T10:57:12.553Z,14.60
2018-04-06T10:59:40.826Z,14.40
2018-04-06T11:02:09.089Z,15.00
2018-04-06T11:04:37.366Z,15.20
2018-04-06T11:07:05.647Z,15.50
2018-04-06T11:09:33.898Z,15.50
2018-04-06T11:12:01.392Z,15.50
2018-04-06T11:14:28.893Z,14.60
2018-04-06T11:16:56.371Z,14.80
2018-04-06T11:19:24.637Z,14.40
2018-04-06T11:21:52.140Z,14.40
2018-04-06T11:24:19.623Z,13.40
2018-04-06T11:26:47.129Z,13.20
2018-04-06T11:29:15.414Z,13.50
2018-04-06T11:31:42.960Z,13.50
2018-04-06T11:34:11.249Z,14.10
2018-04-06T11:36:38.767Z,14.10
2018-04-06T11:39:07.012Z,14.50
2018-04-06T11:41:34.638Z,14.40
2018-04-06T11:44:02.124Z,14.20
2018-04-06T11:46:29.626Z,14.10
2018-04-06T11:48:57.900Z,14.70
2018-04-06T11:51:26.247Z,14.60
2018-04-06T11:53:53.735Z,14.50
2018-04-06T11:56:21.247Z,15.00
2018-04-06T11:58:48.769Z,14.30
2018-04-06T12:01:17.144Z,13.90
2018-04-06T12:03:44.659Z,13.80
2018-04-06T12:06:12.171Z,14.00
2018-04-06T12:08:39.657Z,14.10
2018-04-06T12:11:07.144Z,14.30
2018-04-06T12:13:34.732Z,14.40
2018-04-06T12:16:02.242Z,14.30
2018-04-06T12:18:29.745Z,14.40
2018-04-06T12:20:57.997Z,14.80
2018-04-06T12:23:26.290Z,14.60
2018-04-06T12:25:54.557Z,14.50
2018-04-06T12:28:22.800Z,14.90
2018-04-06T12:30:50.315Z,14.90
2018-04-06T12:33:17.795Z,14.60
2018-04-06T12:35:45.412Z,14.50
2018-04-06T12:38:13.652Z,14.00
2018-04-06T12:40:41.145Z,13.90
2018-04-06T12:43:08.696Z,14.10
2018-04-06T12:45:36.156Z,13.80
2018-04-06T12:48:04.453Z,14.00
2018-04-06T12:50:31.986Z,14.00
2018-04-06T12:53:00.262Z,13.90
2018-04-06T12:55:28.508Z,13.90
2018-04-06T12:57:56.036Z,13.80
2018-04-06T13:00:23.532Z,13.90
2018-04-06T13:02:51.805Z,14.00
2018-04-06T13:05:19.379Z,14.00
2018-04-06T13:07:47.647Z,13.70
2018-04-06T13:10:15.958Z,13.70
2018-04-06T13:12:43.456Z,13.70
2018-04-06T13:15:10.967Z,14.00
2018-04-06T13:17:38.509Z,14.20
2018-04-06T13:20:06.064Z,14.20
2018-04-06T13:22:33.648Z,14.10
2018-04-06T13:25:01.173Z,14.20
2018-04-06T13:27:29.421Z,13.90
2018-04-06T13:29:56.917Z,13.90
2018-04-06T13:32:24.489Z,13.70
2018-04-06T13:34:52.024Z,13.80
2018-04-06T13:37:20.405Z,14.00
2018-04-06T13:39:48.872Z,13.90
2018-04-06T13:42:17.157Z,14.20
2018-04-06T13:44:44.638Z,14.10
2018-04-06T13:47:12.142Z,14.20
2018-04-06T13:49:39.649Z,14.10
2018-04-06T13:52:07.181Z,14.20
2018-04-06T13:54:35.445Z,14.30
2018-04-06T13:57:03.699Z,14.20
2018-04-06T13:59:31.225Z,14.20
2018-04-06T14:01:58.714Z,14.10
2018-04-06T14:04:26.191Z,14.10
2018-04-06T14:06:54.525Z,14.00
2018-04-06T14:09:22.169Z,13.90
2018-04-06T14:11:49.673Z,14.10
2018-04-06T14:14:17.950Z,14.50
2018-04-06T14:16:46.219Z,14.20
2018-04-06T14:19:13.707Z,14.10
2018-04-06T14:21:41.213Z,13.80
2018-04-06T14:24:08.696Z,13.90
2018-04-06T14:26:36.968Z,14.20
2018-04-06T14:29:05.246Z,14.00
2018-04-06T14:31:33.495Z,14.00
2018-04-06T14:34:01.010Z,13.90
2018-04-06T14:36:28.527Z,13.70
2018-04-06T14:38:56.007Z,13.70
2018-04-06T14:41:23.492Z,13.40
2018-04-06T14:43:51.018Z,13.50
2018-04-06T14:46:18.573Z,13.80
2018-04-06T14:48:46.837Z,13.90
2018-04-06T14:51:15.109Z,13.80
2018-04-06T14:53:43.381Z,13.70
2018-04-06T14:56:11.686Z,13.90
2018-04-06T14:58:39.176Z,13.80
2018-04-06T15:01:08.306Z,13.60
2018-04-06T15:03:36.602Z,13.90
2018-04-06T15:06:04.110Z,13.80
2018-04-06T15:08:31.720Z,14.00
2018-04-06T15:10:59.213Z,14.00
2018-04-06T15:13:26.833Z,13.70
2018-04-06T15:15:54.414Z,13.60
2018-04-06T15:18:21.911Z,13.70
2018-04-06T15:20:49.526Z,13.50
2018-04-06T15:23:17.012Z,13.60
2018-04-06T15:25:44.511Z,13.90
2018-04-06T15:28:12.768Z,14.00
2018-04-06T15:30:40.260Z,13.90
2018-04-06T15:33:07.766Z,13.90
2018-04-06T15:35:35.265Z,13.50
2018-04-06T15:38:02.817Z,13.50
2018-04-06T15:40:31.073Z,13.60
2018-04-06T15:42:59.324Z,13.60
2018-04-06T15:45:26.818Z,13.60
2018-04-06T15:47:55.222Z,13.70
2018-04-06T15:50:22.728Z,13.70
2018-04-06T15:52:50.225Z,13.60
2018-04-06T15:55:17.763Z,13.30
2018-04-06T15:57:45.208Z,13.50
2018-04-06T16:00:13.481Z,13.50
2018-04-06T16:02:40.978Z,13.50
2018-04-06T16:05:08.498Z,13.50
2018-04-06T16:07:36.747Z,13.50
2018-04-06T16:10:04.237Z,13.40
2018-04-06T16:12:32.545Z,13.40
2018-04-06T16:15:00.034Z,13.30
2018-04-06T16:17:27.550Z,13.50
2018-04-06T16:19:55.031Z,13.50
2018-04-06T16:22:22.557Z,13.30
2018-04-06T16:24:50.826Z,13.20
2018-04-06T16:27:18.334Z,13.10
2018-04-06T16:29:45.832Z,13.10
2018-04-06T16:32:14.107Z,13.10
2018-04-06T16:34:42.385Z,13.20
2018-04-06T16:37:09.901Z,13.10
2018-04-06T16:39:37.401Z,13.30
2018-04-06T16:42:04.884Z,13.30
2018-04-06T16:44:32.414Z,13.40
2018-04-06T16:46:59.965Z,13.00
2018-04-06T16:49:28.235Z,12.80
2018-04-06T16:51:56.558Z,12.90
2018-04-06T16:54:24.043Z,12.80
2018-04-06T16:56:51.540Z,12.80
2018-04-06T16:59:19.092Z,12.70
2018-04-06T17:01:46.553Z,12.60
2018-04-06T17:04:14.110Z,12.60
2018-04-06T17:06:41.587Z,12.50
2018-04-06T17:09:09.120Z,12.50
2018-04-06T17:11:36.609Z,12.50
2018-04-06T17:14:04.097Z,12.50
2018-04-06T17:16:31.587Z,12.50
2018-04-06T17:18:59.082Z,12.40
2018-04-06T17:21:26.583Z,12.40
2018-04-06T17:23:54.894Z,12.20
2018-04-06T17:26:22.406Z,12.20
2018-04-06T17:28:49.997Z,12.20
2018-04-06T17:31:17.566Z,12.00
2018-04-06T17:33:45.100Z,11.90
2018-04-06T17:36:13.369Z,11.90
2018-04-06T17:38:41.643Z,11.70
2018-04-06T17:41:09.947Z,11.60
2018-04-06T17:43:37.446Z,11.60
2018-04-06T17:46:04.927Z,11.50
2018-04-06T17:48:33.193Z,11.40
2018-04-06T17:51:00.769Z,11.30
2018-04-06T17:53:28.287Z,11.40
2018-04-06T17:55:55.771Z,11.20
2018-04-06T17:58:24.028Z,11.10
2018-04-06T18:00:51.625Z,11.10
2018-04-06T18:03:19.153Z,11.20
2018-04-06T18:05:46.640Z,11.20
2018-04-06T18:08:14.124Z,11.20
2018-04-06T18:10:41.635Z,11.20
2018-04-06T18:13:09.900Z,11.10
2018-04-06T18:15:38.181Z,11.00
2018-04-06T18:18:06.441Z,11.00
2018-04-06T18:20:33.997Z,10.90
2018-04-06T18:23:01.473Z,10.90
2018-04-06T18:25:29.725Z,10.90
2018-04-06T18:27:57.233Z,10.90
2018-04-06T18:30:24.734Z,11.00
2018-04-06T18:32:52.233Z,10.80
2018-04-06T18:35:19.784Z,10.70
2018-04-06T18:37:48.077Z,10.50
2018-04-06T18:40:15.570Z,10.50
2018-04-06T18:42:43.061Z,10.50
2018-04-06T18:45:11.331Z,10.50
2018-04-06T18:47:39.588Z,10.30
2018-04-06T18:50:07.080Z,10.20
2018-04-06T18:52:34.592Z,10.30
2018-04-06T18:55:02.091Z,10.30
2018-04-06T18:57:29.595Z,10.20
2018-04-06T18:59:57.090Z,10.20
2018-04-06T19:02:25.385Z,10.10
2018-04-06T19:04:52.860Z,10.10
2018-04-06T19:07:20.372Z,10.10
2018-04-06T19:09:48.659Z,9.90
2018-04-06T19:12:16.935Z,9.80
2018-04-06T19:14:45.212Z,9.70
2018-04-06T19:17:13.464Z,9.60
2018-04-06T19:19:40.943Z,9.60
2018-04-06T19:22:09.254Z,9.50
2018-04-06T19:24:36.755Z,9.40
2018-04-06T19:27:04.277Z,9.50
2018-04-06T19:29:31.786Z,9.60
2018-04-06T19:32:00.055Z,9.50
2018-04-06T19:34:28.307Z,9.50
2018-04-06T19:36:55.825Z,9.50
2018-04-06T19:39:23.309Z,9.50
2018-04-06T19:41:50.783Z,9.40
2018-04-06T19:44:18.373Z,9.40
2018-04-06T19:46:45.867Z,9.40
2018-04-06T19:49:13.378Z,9.40
2018-04-06T19:51:41.723Z,9.30
2018-04-06T19:54:09.323Z,9.30
2018-04-06T19:56:36.861Z,9.30
2018-04-06T19:59:04.320Z,9.30
2018-04-06T20:01:32.614Z,9.20
2018-04-06T20:04:00.128Z,9.10
2018-04-06T20:06:27.645Z,9.20
2018-04-06T20:08:55.190Z,9.20
2018-04-06T20:11:23.413Z,9.20
2018-04-06T20:13:50.963Z,9.20
2018-04-06T20:16:18.453Z,9.00
2018-04-06T20:18:46.731Z,9.10
2018-04-06T20:21:14.975Z,8.90
2018-04-06T20:23:42.477Z,8.90
2018-04-06T20:26:10.047Z,8.80
2018-04-06T20:28:37.594Z,8.60
2018-04-06T20:31:05.240Z,8.70
2018-04-06T20:33:33.499Z,8.80
2018-04-06T20:36:01.820Z,8.60
2018-04-06T20:38:29.305Z,8.50
2018-04-06T20:40:56.800Z,8.50
2018-04-06T20:43:25.056Z,8.20
2018-04-06T20:45:53.324Z,8.20
2018-04-06T20:48:20.880Z,8.10
2018-04-06T20:50:49.190Z,8.20
2018-04-06T20:53:16.699Z,8.10
2018-04-06T20:55:44.180Z,8.30
2018-04-06T20:58:12.470Z,8.20
2018-04-06T21:00:40.727Z,8.20
2018-04-06T21:03:08.994Z,8.00
2018-04-06T21:05:36.498Z,7.90
2018-04-06T21:08:03.994Z,8.10
2018-04-06T21:10:31.497Z,8.00
2018-04-06T21:12:59.009Z,7.90
2018-04-06T21:15:26.616Z,7.80
2018-04-06T21:17:54.111Z,7.80
2018-04-06T21:20:21.724Z,7.70
2018-04-06T21:22:49.970Z,7.80
2018-04-06T21:25:17.464Z,7.80
2018-04-06T21:27:44.978Z,7.90
2018-04-06T21:30:12.504Z,7.90
2018-04-06T21:32:39.996Z,7.70
2018-04-06T21:35:07.496Z,7.80
2018-04-06T21:37:35.006Z,7.60
2018-04-06T21:40:02.492Z,7.50
2018-04-06T21:42:30.877Z,7.60
2018-04-06T21:44:58.359Z,7.50
2018-04-06T21:47:25.885Z,7.60
2018-04-06T21:49:54.152Z,7.60
2018-04-06T21:52:22.423Z,7.50
2018-04-06T21:54:50.683Z,7.60
2018-04-06T21:57:18.178Z,7.50
2018-04-06T21:59:45.705Z,7.40
2018-04-06T22:02:13.977Z,7.40
2018-04-06T22:04:42.238Z,7.40
2018-04-06T22:07:09.732Z,7.30
2018-04-06T22:09:37.270Z,7.50
2018-04-06T22:12:05.554Z,7.50
2018-04-06T22:14:33.833Z,7.30
2018-04-06T22:17:02.091Z,7.30
2018-04-06T22:19:30.379Z,7.20
2018-04-06T22:21:58.646Z,7.10
2018-04-06T22:24:26.932Z,7.20
2018-04-06T22:26:55.195Z,7.10
2018-04-06T22:29:23.451Z,7.10
2018-04-06T22:31:50.926Z,7.00
2018-04-06T22:34:19.224Z,7.00
2018-04-06T22:36:46.711Z,6.90
2018-04-06T22:39:14.243Z,7.00
2018-04-06T22:41:41.728Z,7.00
2018-04-06T22:44:09.363Z,7.00
2018-04-06T22:46:36.853Z,7.10
2018-04-06T22:49:04.459Z,7.10
2018-04-06T22:51:31.959Z,7.20
2018-04-06T22:53:59.461Z,7.00
2018-04-06T22:56:27.732Z,6.70
2018-04-06T22:58:55.991Z,6.70
2018-04-06T23:01:23.571Z,6.60
2018-04-06T23:03:51.819Z,7.00
2018-04-06T23:06:19.314Z,6.90
2018-04-06T23:08:46.866Z,6.90
2018-04-06T23:11:14.410Z,6.90
2018-04-06T23:13:42.804Z,7.00
2018-04-06T23:16:10.285Z,6.90
2018-04-06T23:18:37.773Z,6.90
2018-04-06T23:21:05.285Z,6.80
2018-04-06T23:23:32.847Z,6.60
2018-04-06T23:26:00.335Z,6.70
2018-04-06T23:28:27.942Z,6.80
2018-04-06T23:30:55.437Z,6.70
2018-04-06T23:33:22.958Z,6.70
2018-04-06T23:35:50.473Z,6.70
2018-04-06T23:38:17.966Z,6.70
2018-04-06T23:40:46.241Z,6.70
2018-04-06T23:43:14.619Z,6.60
2018-04-06T23:45:42.901Z,6.50
2018-04-06T23:48:10.392Z,6.40
2018-04-06T23:50:37.894Z,6.40
2018-04-06T23:53:06.142Z,6.30
2018-04-06T23:55:33.624Z,6.30
2018-04-06T23:58:01.888Z,6.20
